createdAt,value
2022-11-03T00:02:28.543Z,50.8
2022-11-03T00:07:30.653Z,22.9
2022-11-03T00:12:32.633Z,21.1
2022-11-03T00:17:34.680Z,22.4
2022-11-03T00:22:39.403Z,19.8
2022-11-03T00:27:41.621Z,22
2022-11-03T00:32:43.675Z,18.3
2022-11-03T00:37:45.689Z,31.8
2022-11-03T00:42:47.726Z,18.7
2022-11-03T00:47:49.747Z,19.9
2022-11-03T00:52:53.157Z,18.3
2022-11-03T00:57:55.354Z,18.9
2022-11-03T01:02:58.063Z,19.1
2022-11-03T01:13:02.219Z,18.7
2022-11-03T01:18:05.128Z,18.1
2022-11-03T01:23:07.445Z,18.4
2022-11-03T01:28:10.213Z,18.5
2022-11-03T01:33:12.264Z,20.6
2022-11-03T01:38:14.991Z,19.4
2022-11-03T01:43:17.414Z,21.3
2022-11-03T01:48:19.337Z,20.3
2022-11-03T01:53:21.320Z,18.9
2022-11-03T01:58:23.447Z,20.4
2022-11-03T02:03:25.573Z,18.2
2022-11-03T02:08:27.575Z,19.9
2022-11-03T02:13:29.677Z,19.8
2022-11-03T02:18:31.670Z,19.4
2022-11-03T02:23:33.609Z,20.5
2022-11-03T02:28:35.615Z,19.6
2022-11-03T02:33:37.798Z,20.1
2022-11-03T02:38:39.765Z,21.2
2022-11-03T02:43:41.821Z,21.7
2022-11-03T02:48:44.026Z,20
2022-11-03T02:53:46.245Z,23
2022-11-03T02:58:48.533Z,19.3
2022-11-03T03:03:50.529Z,19.8
2022-11-03T03:08:55.204Z,18
2022-11-03T03:13:57.190Z,19.6
2022-11-03T03:18:59.833Z,23.5
2022-11-03T03:24:01.883Z,18.6
2022-11-03T03:29:03.809Z,18.7
2022-11-03T03:34:16.884Z,19.7
2022-11-03T03:39:07.117Z,19.3
2022-11-03T03:44:09.167Z,22.3
2022-11-03T03:49:11.405Z,20.6
2022-11-03T03:54:13.555Z,21
2022-11-03T03:59:15.915Z,23.4
2022-11-03T04:04:18.187Z,22.2
2022-11-03T04:09:20.400Z,20.7
2022-11-03T04:14:22.515Z,20.2
2022-11-03T04:19:24.504Z,23.2
2022-11-03T04:24:26.563Z,21.4
2022-11-03T04:29:28.733Z,24
2022-11-03T04:34:31.306Z,22.1
2022-11-03T04:39:33.373Z,23
2022-11-03T04:44:36.099Z,24
2022-11-03T04:49:38.176Z,20.7
2022-11-03T04:54:40.163Z,19.7
2022-11-03T04:59:42.649Z,19.8
2022-11-03T05:04:45.261Z,16.2
2022-11-03T05:09:47.319Z,17.1
2022-11-03T05:14:51.883Z,28.7
2022-11-03T05:19:50.242Z,38.3
2022-11-03T05:24:52.204Z,39
2022-11-03T05:29:56.356Z,30.9
2022-11-03T05:35:02.978Z,32.9
2022-11-03T05:40:05.249Z,30.8
2022-11-03T05:45:07.244Z,29.6
2022-11-03T05:50:09.232Z,27.9
2022-11-03T05:55:11.256Z,31
2022-11-03T06:00:13.284Z,33.9
2022-11-03T06:05:15.351Z,31.2
2022-11-03T06:10:17.390Z,36.8
2022-11-03T06:15:19.492Z,34.8
2022-11-03T06:20:21.519Z,33.1
2022-11-03T06:25:23.464Z,34.7
2022-11-03T06:30:25.565Z,38.8
2022-11-03T06:35:27.932Z,39.1
2022-11-03T06:40:29.975Z,39.2
2022-11-03T06:45:31.970Z,46.4
2022-11-03T06:46:44.510Z,42.4
2022-11-03T06:51:46.596Z,39
2022-11-03T07:01:51.086Z,47.6
2022-11-03T07:06:53.889Z,32.9
2022-11-03T07:11:56.555Z,31.4
2022-11-03T07:16:58.739Z,33.9
2022-11-03T07:22:00.743Z,33.2
2022-11-03T07:27:02.818Z,39.4
2022-11-03T07:32:05.518Z,42.4
2022-11-03T07:37:07.908Z,34.2
2022-11-03T07:42:10.201Z,39.7
2022-11-03T07:47:12.148Z,33.5
2022-11-03T07:52:14.074Z,34.3
2022-11-03T07:57:16.261Z,55.3
2022-11-03T08:02:17.011Z,34.7
2022-11-03T08:07:19.412Z,35.5
2022-11-03T08:12:21.307Z,33.7
2022-11-03T08:17:23.195Z,34.9
2022-11-03T08:22:25.764Z,33.1
2022-11-03T08:27:28.750Z,30.4
2022-11-03T08:32:30.757Z,31.2
2022-11-03T08:37:33.255Z,32.7
2022-11-03T08:42:35.307Z,33.6
2022-11-03T08:47:37.347Z,31.4
2022-11-03T08:52:39.462Z,38.7
2022-11-03T08:57:41.381Z,38.5
2022-11-03T09:02:43.614Z,32.4
2022-11-03T09:12:47.905Z,36.2
2022-11-03T09:17:50.021Z,32.7
2022-11-03T09:22:52.040Z,25.9
2022-11-03T09:27:53.900Z,21.5
2022-11-03T09:32:56.055Z,19.5
2022-11-03T09:37:58.265Z,23
2022-11-03T09:43:00.352Z,20.6
2022-11-03T09:48:02.392Z,22.3
2022-11-03T09:53:06.012Z,26.4
2022-11-03T09:58:09.812Z,22.7
2022-11-03T10:03:12.154Z,20.2
2022-11-03T10:08:15.896Z,21.3
2022-11-03T10:13:14.217Z,20.6
2022-11-03T10:18:16.228Z,21.2
2022-11-03T10:23:18.413Z,21.1
2022-11-03T10:28:20.460Z,18.4
2022-11-03T10:33:22.527Z,20
2022-11-03T10:38:24.587Z,19.1
2022-11-03T10:43:26.687Z,19.9
2022-11-03T10:48:28.779Z,18.7
2022-11-03T10:53:30.610Z,19.7
2022-11-03T10:58:33.159Z,19.8
2022-11-03T11:03:35.254Z,33
2022-11-03T11:08:37.137Z,17.9
2022-11-03T11:13:39.390Z,19.8
2022-11-03T11:18:41.418Z,18.5
2022-11-03T11:23:43.326Z,17.9
2022-11-03T11:28:45.330Z,20.7
2022-11-03T11:33:47.399Z,19.3
2022-11-03T11:38:49.343Z,21.2
2022-11-03T11:43:51.409Z,21.3
2022-11-03T11:48:55.611Z,23.1
2022-11-03T11:54:16.424Z,21.8
2022-11-03T11:59:00.040Z,21
2022-11-03T12:09:05.177Z,25.5
2022-11-03T12:14:07.171Z,22.8
2022-11-03T12:19:09.128Z,23.7
2022-11-03T12:24:11.337Z,25.4
2022-11-03T12:29:13.358Z,23.8
2022-11-03T12:34:15.388Z,26
2022-11-03T12:39:17.656Z,28.4
2022-11-03T12:44:20.066Z,27.8
2022-11-03T12:49:23.062Z,31.7
2022-11-03T12:54:25.082Z,30.7
2022-11-03T12:59:27.569Z,31.4
2022-11-03T13:04:29.671Z,32.8
2022-11-03T13:09:31.534Z,30.6
2022-11-03T13:14:33.649Z,60.5
2022-11-03T13:19:35.647Z,25.9
2022-11-03T13:24:37.717Z,29.8
2022-11-03T13:29:40.207Z,29.8
2022-11-03T13:34:42.658Z,32.9
2022-11-03T13:39:44.789Z,33.4
2022-11-03T13:44:46.763Z,36.4
2022-11-03T13:59:59.053Z,34.4
2022-11-03T14:05:08.852Z,37.2
2022-11-03T14:15:17.155Z,32.8
2022-11-03T14:20:19.730Z,32.1
2022-11-03T14:25:21.847Z,33.1
2022-11-03T14:30:23.794Z,31.4
2022-11-03T14:35:25.676Z,38.3
2022-11-03T14:40:27.742Z,34
2022-11-03T14:45:29.753Z,31.6
2022-11-03T14:50:32.016Z,31.3
2022-11-03T14:55:34.207Z,31.6
2022-11-03T15:00:36.133Z,32.1
2022-11-03T15:05:38.415Z,35.1
2022-11-03T15:10:40.363Z,33.3
2022-11-03T15:15:42.756Z,36.6
2022-11-03T15:20:44.686Z,35.5
2022-11-03T15:25:46.991Z,37.4
2022-11-03T15:30:49.256Z,39.9
2022-11-03T15:35:51.161Z,54
2022-11-03T15:45:56.135Z,44.4
2022-11-03T15:56:00.549Z,49.6
2022-11-03T16:01:03.052Z,46.8
2022-11-03T16:06:06.265Z,50.5
2022-11-03T16:11:09.079Z,53.4
2022-11-03T16:16:11.718Z,53.4
2022-11-03T16:21:13.761Z,59.1
2022-11-03T16:26:15.925Z,60.4
2022-11-03T16:31:18.440Z,57.8
2022-11-03T16:36:20.527Z,63.2
2022-11-03T16:41:23.011Z,88.7
2022-11-03T16:46:25.400Z,65
2022-11-03T16:51:27.457Z,64.4
2022-11-03T16:56:29.542Z,73.8
2022-11-03T17:01:31.551Z,73.6
2022-11-03T17:06:34.594Z,78.9
2022-11-03T17:11:36.708Z,77.6
2022-11-03T17:16:38.779Z,78.7
2022-11-03T17:21:40.858Z,77.3
2022-11-03T17:26:43.423Z,77.7
2022-11-03T17:31:45.671Z,71.9
2022-11-03T17:36:47.631Z,75.7
2022-11-03T17:41:50.174Z,76.2
2022-11-03T17:46:52.570Z,77.8
2022-11-03T17:51:54.657Z,75.9
2022-11-03T17:56:58.953Z,78.7
2022-11-03T18:02:01.057Z,79.4
2022-11-03T18:07:04.556Z,77
2022-11-03T18:12:06.615Z,76.7
2022-11-03T18:17:08.728Z,81
2022-11-03T18:22:10.759Z,75.2
2022-11-03T18:27:12.789Z,74
2022-11-03T18:32:14.738Z,68.5
2022-11-03T18:37:17.199Z,61.6
2022-11-03T18:42:19.337Z,57.2
2022-11-03T18:47:21.324Z,49.6
2022-11-03T18:52:24.156Z,48.5
2022-11-03T18:57:26.611Z,47.5
2022-11-03T19:02:28.951Z,44.9
2022-11-03T19:07:31.487Z,41.6
2022-11-03T19:17:40.441Z,36.5
2022-11-03T19:22:42.903Z,37.9
2022-11-03T19:27:45.178Z,35.1
2022-11-03T19:32:47.187Z,38.9
2022-11-03T19:42:53.661Z,35.5
2022-11-03T19:48:18.609Z,36.5
2022-11-03T19:52:57.877Z,33.2
2022-11-03T19:57:59.880Z,30.3
2022-11-03T20:03:04.680Z,28.6
2022-11-03T20:08:07.991Z,31
2022-11-03T20:13:11.439Z,28.4
2022-11-03T20:18:13.426Z,26.3
2022-11-03T20:23:15.479Z,28.5
2022-11-03T20:28:17.606Z,29.8
2022-11-03T20:33:19.543Z,29.1
2022-11-03T20:38:21.525Z,29.6
2022-11-03T20:43:23.728Z,29.8
2022-11-03T20:48:25.742Z,29.9
2022-11-03T20:53:27.704Z,28.5
2022-11-03T20:58:29.957Z,28.7
2022-11-03T21:04:00.474Z,28.3
2022-11-03T21:08:33.442Z,29.4
2022-11-03T21:13:35.612Z,28.7
2022-11-03T21:18:37.723Z,27.7
2022-11-03T21:23:40.225Z,28.3
2022-11-03T21:28:42.314Z,30.8
2022-11-03T21:33:44.510Z,29.3
2022-11-03T21:38:46.676Z,25
2022-11-03T21:43:48.982Z,28.1
2022-11-03T21:48:51.095Z,27.8
2022-11-03T21:53:53.181Z,27.5
2022-11-03T21:58:56.428Z,26.5
2022-11-03T22:03:58.683Z,26.8
2022-11-03T22:09:00.650Z,24.7
2022-11-03T22:14:03.258Z,24.5
2022-11-03T22:19:05.369Z,23.7
2022-11-03T22:24:07.386Z,25.1
2022-11-03T22:29:09.452Z,24.7
2022-11-03T22:34:11.932Z,23.9
2022-11-03T22:39:13.956Z,24.8
2022-11-03T22:44:16.404Z,26
2022-11-03T22:49:18.675Z,27.1
2022-11-03T22:54:20.616Z,24.8
2022-11-03T22:59:22.655Z,24.6
2022-11-03T23:04:25.077Z,24.9
2022-11-03T23:09:27.004Z,25.6
2022-11-03T23:14:29.513Z,24.7
2022-11-03T23:19:31.973Z,26.2
2022-11-03T23:24:34.048Z,26.1
2022-11-03T23:29:35.807Z,26.5
2022-11-03T23:34:37.914Z,27.3
2022-11-03T23:44:42.090Z,27.9
2022-11-03T23:49:44.183Z,31.1
2022-11-03T23:54:47.151Z,59.2
2022-11-03T23:59:47.562Z,34
